Lewisville, Texas
Current Conditions -  °F | °C
As of 11:53 PM on Friday 19 Dec 2014 (Local Time) from KDFW Reporting Station
Overcast Overcast  
Wind Chill:   Ceiling: 1000
Heat Index:   Visibility: 10mi
Dew Point:   Wind: 6mph
Humidity: 86%   Direction: 10°N
Pressure: 30.21"   Gusts: NA
Location:  33.05°N, 96.99°W
Report Text: KDFW 200553Z 01005KT 10SM OVC010 08/06 A3021 RMK AO2 SLP230 60000 T00830061 10089 20083 400940072 50004
Loading
Personal Weather Stations






























Interactive Weather Map New forecast layout! Learn more

10-Day Weather Forecast

Advertisements
Track Severe Weather on mobile